sensor_id;sensor_type;location;lat;lon;timestamp;P1;durP1;ratioP1;P2;durP2;ratioP2
3541;SDS011;1785;47.388;8.538;2022-10-18T00:00:30;8.17;;;7.40;;
3541;SDS011;1785;47.388;8.538;2022-10-18T00:02:57;8.07;;;7.23;;
3541;SDS011;1785;47.388;8.538;2022-10-18T00:05:23;12.27;;;7.87;;
3541;SDS011;1785;47.388;8.538;2022-10-18T00:07:49;10.90;;;7.20;;
3541;SDS011;1785;47.388;8.538;2022-10-18T00:10:17;10.10;;;8.13;;
3541;SDS011;1785;47.388;8.538;2022-10-18T00:12:44;10.30;;;7.33;;
3541;SDS011;1785;47.388;8.538;2022-10-18T00:15:10;12.50;;;7.77;;
3541;SDS011;1785;47.388;8.538;2022-10-18T00:17:37;10.00;;;7.70;;
3541;SDS011;1785;47.388;8.538;2022-10-18T00:20:04;9.40;;;7.67;;
3541;SDS011;1785;47.388;8.538;2022-10-18T00:22:32;12.10;;;8.10;;
3541;SDS011;1785;47.388;8.538;2022-10-18T00:24:59;11.23;;;7.30;;
3541;SDS011;1785;47.388;8.538;2022-10-18T00:27:28;8.57;;;7.17;;
3541;SDS011;1785;47.388;8.538;2022-10-18T00:29:54;8.00;;;6.90;;
3541;SDS011;1785;47.388;8.538;2022-10-18T00:32:20;7.73;;;7.10;;
3541;SDS011;1785;47.388;8.538;2022-10-18T00:34:46;10.80;;;8.03;;
3541;SDS011;1785;47.388;8.538;2022-10-18T00:37:13;10.57;;;8.10;;
3541;SDS011;1785;47.388;8.538;2022-10-18T00:39:39;9.57;;;6.95;;
3541;SDS011;1785;47.388;8.538;2022-10-18T00:42:05;9.70;;;7.10;;
3541;SDS011;1785;47.388;8.538;2022-10-18T00:47:32;8.90;;;6.67;;
3541;SDS011;1785;47.388;8.538;2022-10-18T00:50:01;10.13;;;7.00;;
3541;SDS011;1785;47.388;8.538;2022-10-18T00:52:31;8.70;;;7.00;;
3541;SDS011;1785;47.388;8.538;2022-10-18T00:55:00;11.47;;;8.27;;
3541;SDS011;1785;47.388;8.538;2022-10-18T00:57:26;9.93;;;7.83;;
3541;SDS011;1785;47.388;8.538;2022-10-18T00:59:53;8.07;;;7.20;;
3541;SDS011;1785;47.388;8.538;2022-10-18T01:02:20;11.20;;;6.80;;
3541;SDS011;1785;47.388;8.538;2022-10-18T01:04:47;10.00;;;7.50;;
3541;SDS011;1785;47.388;8.538;2022-10-18T01:07:15;7.57;;;6.67;;
3541;SDS011;1785;47.388;8.538;2022-10-18T01:09:59;14.43;;;7.87;;
3541;SDS011;1785;47.388;8.538;2022-10-18T01:12:36;9.67;;;7.97;;
3541;SDS011;1785;47.388;8.538;2022-10-18T01:15:10;9.40;;;6.87;;
3541;SDS011;1785;47.388;8.538;2022-10-18T01:17:46;8.70;;;7.20;;
3541;SDS011;1785;47.388;8.538;2022-10-18T01:20:28;11.50;;;8.10;;
3541;SDS011;1785;47.388;8.538;2022-10-18T01:23:18;9.70;;;7.87;;
3541;SDS011;1785;47.388;8.538;2022-10-18T01:25:52;8.83;;;7.47;;
3541;SDS011;1785;47.388;8.538;2022-10-18T01:28:30;11.97;;;7.80;;
3541;SDS011;1785;47.388;8.538;2022-10-18T01:31:08;18.40;;;8.33;;
3541;SDS011;1785;47.388;8.538;2022-10-18T01:33:40;10.30;;;7.87;;
3541;SDS011;1785;47.388;8.538;2022-10-18T01:36:13;8.60;;;7.43;;
3541;SDS011;1785;47.388;8.538;2022-10-18T01:38:43;10.48;;;8.18;;
3541;SDS011;1785;47.388;8.538;2022-10-18T01:41:14;9.77;;;6.80;;
3541;SDS011;1785;47.388;8.538;2022-10-18T01:43:43;9.23;;;7.00;;
3541;SDS011;1785;47.388;8.538;2022-10-18T01:46:14;9.23;;;7.93;;
3541;SDS011;1785;47.388;8.538;2022-10-18T01:48:44;15.50;;;8.53;;
3541;SDS011;1785;47.388;8.538;2022-10-18T01:51:11;9.33;;;7.20;;
3541;SDS011;1785;47.388;8.538;2022-10-18T01:53:37;11.90;;;8.30;;
3541;SDS011;1785;47.388;8.538;2022-10-18T01:56:10;8.13;;;6.78;;
3541;SDS011;1785;47.388;8.538;2022-10-18T01:58:47;11.60;;;6.87;;
3541;SDS011;1785;47.388;8.538;2022-10-18T02:01:28;10.70;;;7.70;;
3541;SDS011;1785;47.388;8.538;2022-10-18T02:04:04;12.63;;;8.03;;
3541;SDS011;1785;47.388;8.538;2022-10-18T02:06:37;7.10;;;6.50;;
3541;SDS011;1785;47.388;8.538;2022-10-18T02:09:08;7.33;;;6.60;;
3541;SDS011;1785;47.388;8.538;2022-10-18T02:11:41;6.40;;;5.70;;
3541;SDS011;1785;47.388;8.538;2022-10-18T02:14:08;5.77;;;5.10;;
3541;SDS011;1785;47.388;8.538;2022-10-18T02:16:38;5.73;;;5.13;;
3541;SDS011;1785;47.388;8.538;2022-10-18T02:19:08;8.30;;;5.57;;
3541;SDS011;1785;47.388;8.538;2022-10-18T02:21:38;8.53;;;5.60;;
3541;SDS011;1785;47.388;8.538;2022-10-18T02:24:07;5.60;;;5.10;;
3541;SDS011;1785;47.388;8.538;2022-10-18T02:26:35;11.60;;;5.87;;
3541;SDS011;1785;47.388;8.538;2022-10-18T02:29:02;5.53;;;5.03;;
3541;SDS011;1785;47.388;8.538;2022-10-18T02:31:29;5.40;;;4.90;;
3541;SDS011;1785;47.388;8.538;2022-10-18T02:34:01;5.50;;;4.97;;
3541;SDS011;1785;47.388;8.538;2022-10-18T02:36:32;7.07;;;5.40;;
3541;SDS011;1785;47.388;8.538;2022-10-18T02:39:03;5.30;;;4.67;;
3541;SDS011;1785;47.388;8.538;2022-10-18T02:41:33;6.60;;;6.00;;
3541;SDS011;1785;47.388;8.538;2022-10-18T02:43:59;6.00;;;5.50;;
3541;SDS011;1785;47.388;8.538;2022-10-18T02:46:25;10.83;;;5.67;;
3541;SDS011;1785;47.388;8.538;2022-10-18T02:48:52;7.83;;;5.23;;
3541;SDS011;1785;47.388;8.538;2022-10-18T02:51:19;6.53;;;4.80;;
3541;SDS011;1785;47.388;8.538;2022-10-18T02:53:45;5.93;;;5.17;;
3541;SDS011;1785;47.388;8.538;2022-10-18T02:56:11;6.67;;;5.33;;
3541;SDS011;1785;47.388;8.538;2022-10-18T02:58:37;5.87;;;4.90;;
3541;SDS011;1785;47.388;8.538;2022-10-18T03:01:04;6.87;;;5.90;;
3541;SDS011;1785;47.388;8.538;2022-10-18T03:03:30;9.43;;;5.27;;
3541;SDS011;1785;47.388;8.538;2022-10-18T03:05:56;8.30;;;5.53;;
3541;SDS011;1785;47.388;8.538;2022-10-18T03:08:23;7.10;;;5.37;;
3541;SDS011;1785;47.388;8.538;2022-10-18T03:10:50;6.70;;;5.40;;
3541;SDS011;1785;47.388;8.538;2022-10-18T03:13:17;9.00;;;5.43;;
3541;SDS011;1785;47.388;8.538;2022-10-18T03:15:43;5.25;;;4.50;;
3541;SDS011;1785;47.388;8.538;2022-10-18T03:18:09;13.40;;;5.70;;
3541;SDS011;1785;47.388;8.538;2022-10-18T03:20:35;9.07;;;5.30;;
3541;SDS011;1785;47.388;8.538;2022-10-18T03:23:02;7.80;;;5.27;;
3541;SDS011;1785;47.388;8.538;2022-10-18T03:25:29;6.00;;;4.93;;
3541;SDS011;1785;47.388;8.538;2022-10-18T03:27:55;8.37;;;5.73;;
3541;SDS011;1785;47.388;8.538;2022-10-18T03:30:21;5.40;;;4.87;;
3541;SDS011;1785;47.388;8.538;2022-10-18T03:32:47;5.57;;;4.80;;
3541;SDS011;1785;47.388;8.538;2022-10-18T03:35:14;6.57;;;5.10;;
3541;SDS011;1785;47.388;8.538;2022-10-18T03:37:40;6.27;;;5.20;;
3541;SDS011;1785;47.388;8.538;2022-10-18T03:40:07;5.60;;;4.90;;
3541;SDS011;1785;47.388;8.538;2022-10-18T03:42:34;11.47;;;5.83;;
3541;SDS011;1785;47.388;8.538;2022-10-18T03:45:01;6.00;;;5.40;;
3541;SDS011;1785;47.388;8.538;2022-10-18T03:47:27;4.83;;;4.43;;
3541;SDS011;1785;47.388;8.538;2022-10-18T03:49:53;5.67;;;5.17;;
3541;SDS011;1785;47.388;8.538;2022-10-18T03:52:19;7.70;;;5.10;;
3541;SDS011;1785;47.388;8.538;2022-10-18T03:54:45;6.13;;;4.70;;
3541;SDS011;1785;47.388;8.538;2022-10-18T03:57:12;7.10;;;5.00;;
3541;SDS011;1785;47.388;8.538;2022-10-18T03:59:39;6.40;;;5.33;;
3541;SDS011;1785;47.388;8.538;2022-10-18T04:02:05;9.00;;;5.90;;
3541;SDS011;1785;47.388;8.538;2022-10-18T04:04:31;6.13;;;5.53;;
3541;SDS011;1785;47.388;8.538;2022-10-18T04:06:58;15.37;;;6.10;;
3541;SDS011;1785;47.388;8.538;2022-10-18T04:09:24;9.00;;;5.53;;
3541;SDS011;1785;47.388;8.538;2022-10-18T04:11:51;7.87;;;5.70;;
3541;SDS011;1785;47.388;8.538;2022-10-18T04:14:17;5.30;;;4.90;;
3541;SDS011;1785;47.388;8.538;2022-10-18T04:16:46;5.10;;;4.70;;
3541;SDS011;1785;47.388;8.538;2022-10-18T04:19:12;5.93;;;5.30;;
3541;SDS011;1785;47.388;8.538;2022-10-18T04:21:38;7.30;;;5.67;;
3541;SDS011;1785;47.388;8.538;2022-10-18T04:24:05;7.57;;;5.90;;
3541;SDS011;1785;47.388;8.538;2022-10-18T04:26:32;6.53;;;5.73;;
3541;SDS011;1785;47.388;8.538;2022-10-18T04:28:58;6.07;;;5.47;;
3541;SDS011;1785;47.388;8.538;2022-10-18T04:31:24;8.97;;;5.83;;
3541;SDS011;1785;47.388;8.538;2022-10-18T04:33:51;6.17;;;4.80;;
3541;SDS011;1785;47.388;8.538;2022-10-18T04:36:18;9.63;;;6.10;;
3541;SDS011;1785;47.388;8.538;2022-10-18T04:38:44;6.10;;;5.50;;
3541;SDS011;1785;47.388;8.538;2022-10-18T04:41:10;6.60;;;5.63;;
3541;SDS011;1785;47.388;8.538;2022-10-18T04:43:37;6.87;;;6.27;;
3541;SDS011;1785;47.388;8.538;2022-10-18T04:46:03;8.77;;;5.53;;
3541;SDS011;1785;47.388;8.538;2022-10-18T04:48:29;8.40;;;5.90;;
3541;SDS011;1785;47.388;8.538;2022-10-18T04:50:56;11.50;;;6.40;;
3541;SDS011;1785;47.388;8.538;2022-10-18T04:53:22;6.63;;;5.93;;
3541;SDS011;1785;47.388;8.538;2022-10-18T04:55:49;7.77;;;6.97;;
3541;SDS011;1785;47.388;8.538;2022-10-18T04:58:15;7.50;;;6.80;;
3541;SDS011;1785;47.388;8.538;2022-10-18T05:00:42;7.30;;;6.23;;
3541;SDS011;1785;47.388;8.538;2022-10-18T05:03:08;8.63;;;6.60;;
3541;SDS011;1785;47.388;8.538;2022-10-18T05:05:37;8.73;;;7.27;;
3541;SDS011;1785;47.388;8.538;2022-10-18T05:08:04;16.13;;;7.13;;
3541;SDS011;1785;47.388;8.538;2022-10-18T05:10:32;12.47;;;7.33;;
3541;SDS011;1785;47.388;8.538;2022-10-18T05:12:58;7.30;;;6.60;;
3541;SDS011;1785;47.388;8.538;2022-10-18T05:15:24;8.33;;;6.23;;
3541;SDS011;1785;47.388;8.538;2022-10-18T05:17:51;10.30;;;7.50;;
3541;SDS011;1785;47.388;8.538;2022-10-18T05:20:17;8.07;;;6.37;;
3541;SDS011;1785;47.388;8.538;2022-10-18T05:22:43;11.37;;;6.80;;
3541;SDS011;1785;47.388;8.538;2022-10-18T05:25:11;13.63;;;7.93;;
3541;SDS011;1785;47.388;8.538;2022-10-18T05:27:37;9.60;;;7.37;;
3541;SDS011;1785;47.388;8.538;2022-10-18T05:30:04;10.40;;;7.33;;
3541;SDS011;1785;47.388;8.538;2022-10-18T05:32:31;11.73;;;7.17;;
3541;SDS011;1785;47.388;8.538;2022-10-18T05:34:57;8.50;;;7.53;;
3541;SDS011;1785;47.388;8.538;2022-10-18T05:37:24;10.53;;;6.60;;
3541;SDS011;1785;47.388;8.538;2022-10-18T05:39:50;15.23;;;6.93;;
3541;SDS011;1785;47.388;8.538;2022-10-18T05:42:17;12.37;;;6.80;;
3541;SDS011;1785;47.388;8.538;2022-10-18T05:44:44;11.20;;;7.37;;
3541;SDS011;1785;47.388;8.538;2022-10-18T05:47:10;9.13;;;7.23;;
3541;SDS011;1785;47.388;8.538;2022-10-18T05:49:37;8.80;;;6.33;;
3541;SDS011;1785;47.388;8.538;2022-10-18T05:52:04;9.77;;;7.00;;
3541;SDS011;1785;47.388;8.538;2022-10-18T05:54:30;10.53;;;7.97;;
3541;SDS011;1785;47.388;8.538;2022-10-18T05:56:56;10.77;;;7.00;;
3541;SDS011;1785;47.388;8.538;2022-10-18T05:59:23;11.00;;;7.10;;
3541;SDS011;1785;47.388;8.538;2022-10-18T06:01:50;9.10;;;6.67;;
3541;SDS011;1785;47.388;8.538;2022-10-18T06:04:16;12.50;;;7.80;;
3541;SDS011;1785;47.388;8.538;2022-10-18T06:06:42;10.47;;;6.50;;
3541;SDS011;1785;47.388;8.538;2022-10-18T06:09:09;8.63;;;6.90;;
3541;SDS011;1785;47.388;8.538;2022-10-18T06:11:36;7.97;;;7.17;;
3541;SDS011;1785;47.388;8.538;2022-10-18T06:14:02;15.13;;;7.97;;
3541;SDS011;1785;47.388;8.538;2022-10-18T06:16:30;11.33;;;7.50;;
3541;SDS011;1785;47.388;8.538;2022-10-18T06:18:56;8.30;;;7.50;;
3541;SDS011;1785;47.388;8.538;2022-10-18T06:21:24;12.30;;;7.50;;
3541;SDS011;1785;47.388;8.538;2022-10-18T06:23:50;13.90;;;7.73;;
3541;SDS011;1785;47.388;8.538;2022-10-18T06:26:18;10.63;;;7.63;;
3541;SDS011;1785;47.388;8.538;2022-10-18T06:28:45;11.53;;;7.73;;
3541;SDS011;1785;47.388;8.538;2022-10-18T06:31:11;10.30;;;7.20;;
3541;SDS011;1785;47.388;8.538;2022-10-18T06:33:39;9.77;;;7.17;;
3541;SDS011;1785;47.388;8.538;2022-10-18T06:36:06;9.10;;;7.70;;
3541;SDS011;1785;47.388;8.538;2022-10-18T06:38:35;9.80;;;7.30;;
3541;SDS011;1785;47.388;8.538;2022-10-18T06:41:02;10.07;;;7.50;;
3541;SDS011;1785;47.388;8.538;2022-10-18T06:43:30;14.27;;;10.20;;
3541;SDS011;1785;47.388;8.538;2022-10-18T06:45:56;9.80;;;8.20;;
3541;SDS011;1785;47.388;8.538;2022-10-18T06:48:25;11.20;;;8.00;;
3541;SDS011;1785;47.388;8.538;2022-10-18T06:50:53;8.47;;;7.73;;
3541;SDS011;1785;47.388;8.538;2022-10-18T06:53:21;9.23;;;8.33;;
3541;SDS011;1785;47.388;8.538;2022-10-18T06:55:48;11.40;;;7.53;;
3541;SDS011;1785;47.388;8.538;2022-10-18T06:58:14;12.97;;;8.03;;
3541;SDS011;1785;47.388;8.538;2022-10-18T07:00:41;14.03;;;7.40;;
3541;SDS011;1785;47.388;8.538;2022-10-18T07:03:09;12.53;;;8.17;;
3541;SDS011;1785;47.388;8.538;2022-10-18T07:05:36;13.73;;;7.33;;
3541;SDS011;1785;47.388;8.538;2022-10-18T07:08:03;14.37;;;7.50;;
3541;SDS011;1785;47.388;8.538;2022-10-18T07:10:30;12.10;;;7.03;;
3541;SDS011;1785;47.388;8.538;2022-10-18T07:12:56;7.13;;;6.40;;
3541;SDS011;1785;47.388;8.538;2022-10-18T07:15:23;7.40;;;6.33;;
3541;SDS011;1785;47.388;8.538;2022-10-18T07:17:49;8.68;;;5.65;;
3541;SDS011;1785;47.388;8.538;2022-10-18T07:20:16;8.47;;;5.87;;
3541;SDS011;1785;47.388;8.538;2022-10-18T07:22:42;7.13;;;6.50;;
3541;SDS011;1785;47.388;8.538;2022-10-18T07:25:09;6.70;;;5.40;;
3541;SDS011;1785;47.388;8.538;2022-10-18T07:27:36;6.40;;;5.80;;
3541;SDS011;1785;47.388;8.538;2022-10-18T07:30:03;8.57;;;5.23;;
3541;SDS011;1785;47.388;8.538;2022-10-18T07:32:30;13.10;;;5.20;;
3541;SDS011;1785;47.388;8.538;2022-10-18T07:34:56;9.07;;;5.90;;
3541;SDS011;1785;47.388;8.538;2022-10-18T07:37:23;11.90;;;5.40;;
3541;SDS011;1785;47.388;8.538;2022-10-18T07:39:49;9.83;;;5.60;;
3541;SDS011;1785;47.388;8.538;2022-10-18T07:42:16;8.27;;;5.30;;
3541;SDS011;1785;47.388;8.538;2022-10-18T07:44:42;6.80;;;5.60;;
3541;SDS011;1785;47.388;8.538;2022-10-18T07:47:09;10.87;;;5.60;;
3541;SDS011;1785;47.388;8.538;2022-10-18T07:49:35;11.00;;;6.20;;
3541;SDS011;1785;47.388;8.538;2022-10-18T07:52:02;9.70;;;5.60;;
3541;SDS011;1785;47.388;8.538;2022-10-18T07:54:28;5.77;;;4.87;;
3541;SDS011;1785;47.388;8.538;2022-10-18T07:56:55;7.60;;;5.50;;
3541;SDS011;1785;47.388;8.538;2022-10-18T07:59:22;7.27;;;5.50;;
3541;SDS011;1785;47.388;8.538;2022-10-18T08:01:49;11.00;;;5.23;;
3541;SDS011;1785;47.388;8.538;2022-10-18T08:04:15;7.50;;;5.20;;
3541;SDS011;1785;47.388;8.538;2022-10-18T08:06:42;10.43;;;5.90;;
3541;SDS011;1785;47.388;8.538;2022-10-18T08:09:08;12.17;;;5.40;;
3541;SDS011;1785;47.388;8.538;2022-10-18T08:11:34;6.97;;;5.90;;
3541;SDS011;1785;47.388;8.538;2022-10-18T08:14:01;12.97;;;7.03;;
3541;SDS011;1785;47.388;8.538;2022-10-18T08:16:28;9.83;;;6.47;;
3541;SDS011;1785;47.388;8.538;2022-10-18T08:18:56;8.10;;;5.43;;
3541;SDS011;1785;47.388;8.538;2022-10-18T08:21:22;5.73;;;5.27;;
3541;SDS011;1785;47.388;8.538;2022-10-18T08:23:49;7.70;;;5.63;;
3541;SDS011;1785;47.388;8.538;2022-10-18T08:26:16;8.93;;;5.93;;
3541;SDS011;1785;47.388;8.538;2022-10-18T08:28:44;13.63;;;6.63;;
3541;SDS011;1785;47.388;8.538;2022-10-18T08:31:11;6.17;;;5.57;;
3541;SDS011;1785;47.388;8.538;2022-10-18T08:33:42;13.10;;;6.80;;
3541;SDS011;1785;47.388;8.538;2022-10-18T08:36:09;8.57;;;6.70;;
3541;SDS011;1785;47.388;8.538;2022-10-18T08:38:38;12.05;;;6.70;;
3541;SDS011;1785;47.388;8.538;2022-10-18T08:41:13;8.23;;;7.03;;
3541;SDS011;1785;47.388;8.538;2022-10-18T08:44:02;8.20;;;6.50;;
3541;SDS011;1785;47.388;8.538;2022-10-18T08:46:31;9.50;;;6.30;;
3541;SDS011;1785;47.388;8.538;2022-10-18T08:49:00;8.53;;;5.70;;
3541;SDS011;1785;47.388;8.538;2022-10-18T08:51:29;7.90;;;6.80;;
3541;SDS011;1785;47.388;8.538;2022-10-18T08:54:02;8.43;;;6.20;;
3541;SDS011;1785;47.388;8.538;2022-10-18T08:56:32;9.90;;;6.47;;
3541;SDS011;1785;47.388;8.538;2022-10-18T08:59:00;9.10;;;6.83;;
3541;SDS011;1785;47.388;8.538;2022-10-18T09:01:28;8.80;;;6.73;;
3541;SDS011;1785;47.388;8.538;2022-10-18T09:04:08;8.27;;;7.27;;
3541;SDS011;1785;47.388;8.538;2022-10-18T09:07:01;7.10;;;6.13;;
3541;SDS011;1785;47.388;8.538;2022-10-18T09:09:40;12.47;;;7.23;;
3541;SDS011;1785;47.388;8.538;2022-10-18T09:12:15;7.90;;;6.30;;
3541;SDS011;1785;47.388;8.538;2022-10-18T09:15:11;8.73;;;6.30;;
3541;SDS011;1785;47.388;8.538;2022-10-18T09:17:43;10.27;;;6.13;;
3541;SDS011;1785;47.388;8.538;2022-10-18T09:20:22;11.90;;;5.80;;
3541;SDS011;1785;47.388;8.538;2022-10-18T09:22:52;17.50;;;12.43;;
3541;SDS011;1785;47.388;8.538;2022-10-18T09:25:20;17.33;;;13.03;;
3541;SDS011;1785;47.388;8.538;2022-10-18T09:27:53;14.00;;;8.97;;
3541;SDS011;1785;47.388;8.538;2022-10-18T09:30:24;6.30;;;5.20;;
3541;SDS011;1785;47.388;8.538;2022-10-18T09:33:06;13.80;;;5.73;;
3541;SDS011;1785;47.388;8.538;2022-10-18T09:35:49;8.33;;;5.53;;
3541;SDS011;1785;47.388;8.538;2022-10-18T09:38:22;10.95;;;5.53;;
3541;SDS011;1785;47.388;8.538;2022-10-18T09:43:23;7.07;;;5.60;;
3541;SDS011;1785;47.388;8.538;2022-10-18T09:45:54;10.93;;;5.73;;
3541;SDS011;1785;47.388;8.538;2022-10-18T09:48:23;8.17;;;5.47;;
3541;SDS011;1785;47.388;8.538;2022-10-18T09:50:55;6.00;;;5.30;;
3541;SDS011;1785;47.388;8.538;2022-10-18T09:53:26;7.90;;;5.40;;
3541;SDS011;1785;47.388;8.538;2022-10-18T09:56:02;8.40;;;5.28;;
3541;SDS011;1785;47.388;8.538;2022-10-18T09:58:39;6.47;;;5.67;;
3541;SDS011;1785;47.388;8.538;2022-10-18T10:01:07;5.33;;;4.83;;
3541;SDS011;1785;47.388;8.538;2022-10-18T10:03:35;7.67;;;4.67;;
3541;SDS011;1785;47.388;8.538;2022-10-18T10:06:02;8.17;;;4.90;;
3541;SDS011;1785;47.388;8.538;2022-10-18T10:08:41;5.97;;;5.33;;
3541;SDS011;1785;47.388;8.538;2022-10-18T10:13:51;10.13;;;5.73;;
3541;SDS011;1785;47.388;8.538;2022-10-18T10:16:32;8.83;;;5.00;;
3541;SDS011;1785;47.388;8.538;2022-10-18T10:19:07;6.80;;;4.90;;
3541;SDS011;1785;47.388;8.538;2022-10-18T10:21:42;6.77;;;5.77;;
3541;SDS011;1785;47.388;8.538;2022-10-18T10:24:13;9.80;;;5.10;;
3541;SDS011;1785;47.388;8.538;2022-10-18T10:26:46;6.30;;;5.30;;
3541;SDS011;1785;47.388;8.538;2022-10-18T10:32:13;9.90;;;5.50;;
3541;SDS011;1785;47.388;8.538;2022-10-18T10:34:40;5.60;;;5.00;;
3541;SDS011;1785;47.388;8.538;2022-10-18T10:37:20;7.47;;;4.50;;
3541;SDS011;1785;47.388;8.538;2022-10-18T10:40:06;7.93;;;4.90;;
3541;SDS011;1785;47.388;8.538;2022-10-18T10:42:47;6.93;;;4.90;;
3541;SDS011;1785;47.388;8.538;2022-10-18T10:45:19;9.97;;;5.87;;
3541;SDS011;1785;47.388;8.538;2022-10-18T10:47:47;5.13;;;4.70;;
3541;SDS011;1785;47.388;8.538;2022-10-18T10:50:20;7.93;;;5.17;;
3541;SDS011;1785;47.388;8.538;2022-10-18T10:52:49;7.83;;;4.73;;
3541;SDS011;1785;47.388;8.538;2022-10-18T10:55:17;7.30;;;5.80;;
3541;SDS011;1785;47.388;8.538;2022-10-18T10:57:47;7.33;;;5.90;;
3541;SDS011;1785;47.388;8.538;2022-10-18T11:00:35;13.60;;;12.20;;
3541;SDS011;1785;47.388;8.538;2022-10-18T11:03:04;10.07;;;4.70;;
3541;SDS011;1785;47.388;8.538;2022-10-18T11:05:41;12.47;;;5.77;;
3541;SDS011;1785;47.388;8.538;2022-10-18T11:08:10;4.13;;;3.67;;
3541;SDS011;1785;47.388;8.538;2022-10-18T11:10:41;12.80;;;4.93;;
3541;SDS011;1785;47.388;8.538;2022-10-18T11:13:21;7.20;;;4.07;;
3541;SDS011;1785;47.388;8.538;2022-10-18T11:15:53;4.73;;;4.23;;
3541;SDS011;1785;47.388;8.538;2022-10-18T11:18:25;8.63;;;4.27;;
3541;SDS011;1785;47.388;8.538;2022-10-18T11:20:55;6.50;;;3.13;;
3541;SDS011;1785;47.388;8.538;2022-10-18T11:23:27;9.73;;;3.70;;
3541;SDS011;1785;47.388;8.538;2022-10-18T11:26:08;4.50;;;3.90;;
3541;SDS011;1785;47.388;8.538;2022-10-18T11:28:57;4.17;;;3.77;;
3541;SDS011;1785;47.388;8.538;2022-10-18T11:31:37;5.33;;;3.73;;
3541;SDS011;1785;47.388;8.538;2022-10-18T11:34:14;9.00;;;4.10;;
3541;SDS011;1785;47.388;8.538;2022-10-18T11:37:02;6.93;;;4.47;;
3541;SDS011;1785;47.388;8.538;2022-10-18T11:39:41;10.50;;;4.60;;
3541;SDS011;1785;47.388;8.538;2022-10-18T11:42:20;10.70;;;4.80;;
3541;SDS011;1785;47.388;8.538;2022-10-18T11:44:58;4.40;;;3.63;;
3541;SDS011;1785;47.388;8.538;2022-10-18T11:47:36;7.17;;;3.70;;
3541;SDS011;1785;47.388;8.538;2022-10-18T11:50:10;5.73;;;4.10;;
3541;SDS011;1785;47.388;8.538;2022-10-18T11:52:46;7.10;;;4.17;;
3541;SDS011;1785;47.388;8.538;2022-10-18T11:55:30;7.03;;;3.60;;
3541;SDS011;1785;47.388;8.538;2022-10-18T11:58:09;4.70;;;3.60;;
3541;SDS011;1785;47.388;8.538;2022-10-18T12:00:47;6.10;;;3.70;;
3541;SDS011;1785;47.388;8.538;2022-10-18T12:03:25;6.33;;;3.10;;
3541;SDS011;1785;47.388;8.538;2022-10-18T12:05:59;4.80;;;3.87;;
3541;SDS011;1785;47.388;8.538;2022-10-18T12:08:31;6.10;;;4.43;;
3541;SDS011;1785;47.388;8.538;2022-10-18T12:11:02;5.20;;;3.57;;
3541;SDS011;1785;47.388;8.538;2022-10-18T12:13:35;6.20;;;3.97;;
3541;SDS011;1785;47.388;8.538;2022-10-18T12:16:07;5.33;;;3.67;;
3541;SDS011;1785;47.388;8.538;2022-10-18T12:18:35;3.23;;;2.97;;
3541;SDS011;1785;47.388;8.538;2022-10-18T12:21:11;8.13;;;4.73;;
3541;SDS011;1785;47.388;8.538;2022-10-18T12:23:41;9.03;;;4.90;;
3541;SDS011;1785;47.388;8.538;2022-10-18T12:26:11;7.57;;;4.70;;
3541;SDS011;1785;47.388;8.538;2022-10-18T12:28:41;9.90;;;6.53;;
3541;SDS011;1785;47.388;8.538;2022-10-18T12:31:16;8.80;;;4.40;;
3541;SDS011;1785;47.388;8.538;2022-10-18T12:33:47;7.87;;;4.77;;
3541;SDS011;1785;47.388;8.538;2022-10-18T12:36:19;7.23;;;4.43;;
3541;SDS011;1785;47.388;8.538;2022-10-18T12:38:57;8.60;;;3.93;;
3541;SDS011;1785;47.388;8.538;2022-10-18T12:41:27;8.70;;;4.20;;
3541;SDS011;1785;47.388;8.538;2022-10-18T12:43:56;9.10;;;4.70;;
3541;SDS011;1785;47.388;8.538;2022-10-18T12:46:41;5.83;;;4.60;;
3541;SDS011;1785;47.388;8.538;2022-10-18T12:49:09;6.20;;;4.37;;
3541;SDS011;1785;47.388;8.538;2022-10-18T12:51:42;5.20;;;4.10;;
3541;SDS011;1785;47.388;8.538;2022-10-18T12:54:16;7.40;;;4.63;;
3541;SDS011;1785;47.388;8.538;2022-10-18T12:56:47;4.63;;;4.10;;
3541;SDS011;1785;47.388;8.538;2022-10-18T13:02:08;9.60;;;4.00;;
3541;SDS011;1785;47.388;8.538;2022-10-18T13:04:45;14.33;;;6.23;;
3541;SDS011;1785;47.388;8.538;2022-10-18T13:07:21;7.83;;;4.00;;
3541;SDS011;1785;47.388;8.538;2022-10-18T13:13:10;4.60;;;3.87;;
3541;SDS011;1785;47.388;8.538;2022-10-18T13:15:52;6.30;;;3.90;;
3541;SDS011;1785;47.388;8.538;2022-10-18T13:18:28;11.63;;;3.83;;
3541;SDS011;1785;47.388;8.538;2022-10-18T13:21:07;5.87;;;4.70;;
3541;SDS011;1785;47.388;8.538;2022-10-18T13:23:41;9.43;;;4.90;;
3541;SDS011;1785;47.388;8.538;2022-10-18T13:26:21;9.03;;;4.00;;
3541;SDS011;1785;47.388;8.538;2022-10-18T13:28:57;7.60;;;4.20;;
3541;SDS011;1785;47.388;8.538;2022-10-18T13:31:34;4.93;;;3.87;;
3541;SDS011;1785;47.388;8.538;2022-10-18T13:34:21;12.23;;;3.70;;
3541;SDS011;1785;47.388;8.538;2022-10-18T13:36:54;5.83;;;3.83;;
3541;SDS011;1785;47.388;8.538;2022-10-18T13:39:22;6.00;;;4.00;;
3541;SDS011;1785;47.388;8.538;2022-10-18T13:44:45;8.27;;;4.20;;
3541;SDS011;1785;47.388;8.538;2022-10-18T13:47:12;7.23;;;4.03;;
3541;SDS011;1785;47.388;8.538;2022-10-18T13:49:48;9.37;;;4.10;;
3541;SDS011;1785;47.388;8.538;2022-10-18T13:56:05;5.10;;;3.53;;
3541;SDS011;1785;47.388;8.538;2022-10-18T13:58:44;8.20;;;4.80;;
3541;SDS011;1785;47.388;8.538;2022-10-18T14:01:22;8.80;;;4.00;;
3541;SDS011;1785;47.388;8.538;2022-10-18T14:04:01;5.10;;;4.00;;
3541;SDS011;1785;47.388;8.538;2022-10-18T14:06:51;11.00;;;4.50;;
3541;SDS011;1785;47.388;8.538;2022-10-18T14:09:23;5.50;;;4.40;;
3541;SDS011;1785;47.388;8.538;2022-10-18T14:11:54;3.83;;;3.50;;
3541;SDS011;1785;47.388;8.538;2022-10-18T14:14:27;6.87;;;3.70;;
3541;SDS011;1785;47.388;8.538;2022-10-18T14:17:00;7.17;;;5.23;;
3541;SDS011;1785;47.388;8.538;2022-10-18T14:19:32;5.70;;;4.10;;
3541;SDS011;1785;47.388;8.538;2022-10-18T14:22:15;9.13;;;4.13;;
3541;SDS011;1785;47.388;8.538;2022-10-18T14:24:47;10.93;;;4.00;;
3541;SDS011;1785;47.388;8.538;2022-10-18T14:27:16;4.40;;;3.27;;
3541;SDS011;1785;47.388;8.538;2022-10-18T14:29:44;6.20;;;3.77;;
3541;SDS011;1785;47.388;8.538;2022-10-18T14:32:17;5.60;;;3.70;;
3541;SDS011;1785;47.388;8.538;2022-10-18T14:34:49;8.40;;;4.13;;
3541;SDS011;1785;47.388;8.538;2022-10-18T14:37:18;6.70;;;4.40;;
3541;SDS011;1785;47.388;8.538;2022-10-18T14:39:55;6.10;;;3.47;;
3541;SDS011;1785;47.388;8.538;2022-10-18T14:42:22;4.07;;;3.50;;
3541;SDS011;1785;47.388;8.538;2022-10-18T14:44:50;7.63;;;3.63;;
3541;SDS011;1785;47.388;8.538;2022-10-18T14:47:20;5.70;;;3.70;;
3541;SDS011;1785;47.388;8.538;2022-10-18T14:49:47;7.47;;;4.33;;
3541;SDS011;1785;47.388;8.538;2022-10-18T14:52:15;7.80;;;4.13;;
3541;SDS011;1785;47.388;8.538;2022-10-18T14:54:44;5.13;;;3.70;;
3541;SDS011;1785;47.388;8.538;2022-10-18T14:57:14;5.60;;;3.77;;
3541;SDS011;1785;47.388;8.538;2022-10-18T14:59:43;10.13;;;3.50;;
3541;SDS011;1785;47.388;8.538;2022-10-18T15:02:16;4.93;;;3.50;;
3541;SDS011;1785;47.388;8.538;2022-10-18T15:04:50;4.47;;;3.63;;
3541;SDS011;1785;47.388;8.538;2022-10-18T15:07:20;7.00;;;3.93;;
3541;SDS011;1785;47.388;8.538;2022-10-18T15:09:46;6.57;;;3.97;;
3541;SDS011;1785;47.388;8.538;2022-10-18T15:12:13;6.43;;;3.43;;
3541;SDS011;1785;47.388;8.538;2022-10-18T15:14:40;5.77;;;3.43;;
3541;SDS011;1785;47.388;8.538;2022-10-18T15:17:11;6.80;;;3.20;;
3541;SDS011;1785;47.388;8.538;2022-10-18T15:19:51;7.50;;;3.47;;
3541;SDS011;1785;47.388;8.538;2022-10-18T15:22:21;4.67;;;4.27;;
3541;SDS011;1785;47.388;8.538;2022-10-18T15:25:02;7.82;;;4.15;;
3541;SDS011;1785;47.388;8.538;2022-10-18T15:27:40;5.67;;;3.40;;
3541;SDS011;1785;47.388;8.538;2022-10-18T15:30:13;10.90;;;4.10;;
3541;SDS011;1785;47.388;8.538;2022-10-18T15:32:45;4.33;;;3.60;;
3541;SDS011;1785;47.388;8.538;2022-10-18T15:35:14;6.47;;;3.47;;
3541;SDS011;1785;47.388;8.538;2022-10-18T15:37:43;3.30;;;2.77;;
3541;SDS011;1785;47.388;8.538;2022-10-18T15:40:15;7.87;;;3.70;;
3541;SDS011;1785;47.388;8.538;2022-10-18T15:42:57;6.57;;;3.83;;
3541;SDS011;1785;47.388;8.538;2022-10-18T15:45:34;7.32;;;3.70;;
3541;SDS011;1785;47.388;8.538;2022-10-18T15:48:15;5.03;;;3.30;;
3541;SDS011;1785;47.388;8.538;2022-10-18T15:50:46;8.33;;;4.17;;
3541;SDS011;1785;47.388;8.538;2022-10-18T15:53:21;7.23;;;3.63;;
3541;SDS011;1785;47.388;8.538;2022-10-18T15:55:50;8.43;;;3.43;;